Time;durP1;ratioP1;P1;durP2;ratioP2;P2;SDS_P1;SDS_P2;PMS_P1;PMS_P2;Temp;Humidity;BMP_temperature;BMP_pressure;BME280_temperature;BME280_humidity;BME280_pressure;Samples;Min_cycle;Max_cycle;Signal;HPM_P1;HPM_P2
2023/03/30 00:01:10;;;;;;;9.63;3.40;;;;;;;;;;4925190;29;20107;-79
2023/03/30 00:03:41;;;;;;;8.05;3.50;;;;;;;;;;4936968;29;20118;-80
2023/03/30 00:06:09;;;;;;;8.90;3.35;;;;;;;;;;4951196;29;20463;-78
2023/03/30 00:08:36;;;;;;;7.40;3.30;;;;;;;;;;4937271;29;20055;-78
2023/03/30 00:11:04;;;;;;;8.07;3.88;;;;;;;;;;4937074;29;20412;-79
2023/03/30 00:13:32;;;;;;;7.63;3.70;;;;;;;;;;4937941;29;20083;-78
2023/03/30 00:15:58;;;;;;;9.55;3.92;;;;;;;;;;4945268;28;20051;-78
2023/03/30 00:18:25;;;;;;;8.57;3.60;;;;;;;;;;4941366;29;20066;-77
2023/03/30 00:20:52;;;;;;;9.07;3.70;;;;;;;;;;4943260;29;20074;-78
2023/03/30 00:23:19;;;;;;;8.35;3.80;;;;;;;;;;4939343;29;20070;-80
2023/03/30 00:25:45;;;;;;;10.00;3.58;;;;;;;;;;4934532;29;20062;-78
2023/03/30 00:28:12;;;;;;;10.55;4.30;;;;;;;;;;4934504;29;20095;-80
2023/03/30 00:30:40;;;;;;;13.95;3.83;;;;;;;;;;4934154;29;20039;-79
2023/03/30 00:33:07;;;;;;;6.47;3.47;;;;;;;;;;4935335;29;20040;-80
2023/03/30 00:35:35;;;;;;;7.93;3.50;;;;;;;;;;4933728;29;20112;-80
2023/03/30 00:38:02;;;;;;;11.90;3.45;;;;;;;;;;4932701;29;20047;-79
2023/03/30 00:40:30;;;;;;;8.38;4.10;;;;;;;;;;4932179;29;20186;-80
2023/03/30 00:43:00;;;;;;;11.68;4.05;;;;;;;;;;4933574;29;20032;-78
2023/03/30 00:45:31;;;;;;;10.68;4.55;;;;;;;;;;4933841;29;20043;-79
2023/03/30 00:47:58;;;;;;;9.25;4.18;;;;;;;;;;4933773;29;20118;-77
2023/03/30 00:50:28;;;;;;;10.88;3.95;;;;;;;;;;4933248;29;20047;-78
2023/03/30 00:52:57;;;;;;;10.82;4.75;;;;;;;;;;4917141;29;20138;-80
2023/03/30 00:55:29;;;;;;;10.85;4.38;;;;;;;;;;4934917;29;20135;-80
2023/03/30 00:57:56;;;;;;;7.72;4.05;;;;;;;;;;4934367;29;20184;-80
2023/03/30 01:00:22;;;;;;;10.98;4.80;;;;;;;;;;4917102;29;20067;-77
2023/03/30 01:02:55;;;;;;;9.98;4.47;;;;;;;;;;4932537;29;20060;-79
2023/03/30 01:05:23;;;;;;;17.33;5.10;;;;;;;;;;4933745;29;20443;-80
2023/03/30 01:07:50;;;;;;;13.25;4.80;;;;;;;;;;4932014;29;20419;-78
2023/03/30 01:10:17;;;;;;;10.68;4.43;;;;;;;;;;4934062;29;20126;-79
2023/03/30 01:12:43;;;;;;;12.07;4.38;;;;;;;;;;4934200;29;20099;-77
2023/03/30 01:15:10;;;;;;;14.00;5.03;;;;;;;;;;4933521;29;20407;-79
2023/03/30 01:18:01;;;;;;;10.00;4.90;;;;;;;;;;4932308;29;20119;-78
2023/03/30 01:20:49;;;;;;;11.63;4.78;;;;;;;;;;4915920;29;20070;-80
2023/03/30 01:23:32;;;;;;;8.63;4.50;;;;;;;;;;4932767;29;20191;-79
2023/03/30 01:26:11;;;;;;;18.85;5.20;;;;;;;;;;4934118;29;20040;-79
2023/03/30 01:28:51;;;;;;;12.60;4.90;;;;;;;;;;4933534;29;20047;-79
2023/03/30 01:31:24;;;;;;;16.00;5.25;;;;;;;;;;4927961;29;20406;-79
2023/03/30 01:33:51;;;;;;;13.55;5.32;;;;;;;;;;4926122;29;20059;-80
2023/03/30 01:36:36;;;;;;;9.57;4.78;;;;;;;;;;4929111;29;20059;-80
2023/03/30 01:39:06;;;;;;;8.27;3.97;;;;;;;;;;4917038;29;20046;-81
2023/03/30 01:41:36;;;;;;;6.43;3.45;;;;;;;;;;4919170;29;20048;-78
2023/03/30 01:44:18;;;;;;;6.10;2.60;;;;;;;;;;4914312;29;20082;-79
2023/03/30 01:46:48;;;;;;;9.93;2.75;;;;;;;;;;4914891;29;20079;-79
2023/03/30 01:49:18;;;;;;;7.32;2.13;;;;;;;;;;4914653;29;20044;-80
2023/03/30 01:51:56;;;;;;;4.88;1.95;;;;;;;;;;4916936;29;20082;-80
2023/03/30 01:54:26;;;;;;;6.18;2.75;;;;;;;;;;4934096;29;20054;-80
2023/03/30 01:56:56;;;;;;;3.95;1.83;;;;;;;;;;4933774;29;20214;-80
2023/03/30 01:59:25;;;;;;;6.47;1.70;;;;;;;;;;4934388;29;20052;-80
2023/03/30 02:01:59;;;;;;;7.78;2.05;;;;;;;;;;4932527;29;20095;-80
2023/03/30 02:04:27;;;;;;;6.45;1.63;;;;;;;;;;4932854;29;20047;-80
2023/03/30 02:06:58;;;;;;;6.13;1.65;;;;;;;;;;4933224;29;20048;-80
2023/03/30 02:09:29;;;;;;;9.10;1.90;;;;;;;;;;4934266;29;20120;-80
2023/03/30 02:11:56;;;;;;;3.38;1.33;;;;;;;;;;4933241;29;20054;-80
2023/03/30 02:14:25;;;;;;;3.80;1.40;;;;;;;;;;4936039;29;20416;-81
2023/03/30 02:16:57;;;;;;;9.77;1.50;;;;;;;;;;4932997;29;20184;-79
2023/03/30 02:19:26;;;;;;;8.55;1.70;;;;;;;;;;4933584;29;20239;-80
2023/03/30 02:21:53;;;;;;;4.43;1.60;;;;;;;;;;4933911;29;20102;-79
2023/03/30 02:24:22;;;;;;;5.25;1.42;;;;;;;;;;4921104;29;20056;-78
2023/03/30 02:26:50;;;;;;;5.75;1.45;;;;;;;;;;4949811;29;20055;-81
2023/03/30 02:29:17;;;;;;;2.95;1.50;;;;;;;;;;4933120;29;20482;-80
2023/03/30 02:31:45;;;;;;;5.97;1.60;;;;;;;;;;4934876;29;20119;-79
2023/03/30 02:34:15;;;;;;;5.50;1.50;;;;;;;;;;4932565;29;20112;-79
2023/03/30 02:37:00;;;;;;;4.13;1.52;;;;;;;;;;4915685;29;20056;-79
2023/03/30 02:39:27;;;;;;;5.03;1.40;;;;;;;;;;4939054;29;20071;-78
2023/03/30 02:42:16;;;;;;;5.70;1.73;;;;;;;;;;4948422;29;20070;-80
2023/03/30 02:44:51;;;;;;;5.80;1.40;;;;;;;;;;4935019;29;20056;-80
2023/03/30 02:47:30;;;;;;;5.22;1.42;;;;;;;;;;4936120;29;20055;-80
2023/03/30 02:50:20;;;;;;;6.72;1.48;;;;;;;;;;4936015;29;20420;-80
2023/03/30 02:53:05;;;;;;;6.38;1.30;;;;;;;;;;4934537;29;20090;-80
2023/03/30 02:55:35;;;;;;;;;;;;;;;;;;4935951;29;20107;-80
2023/03/30 02:58:26;;;;;;;7.63;1.38;;;;;;;;;;4933937;29;19973;-79
2023/03/30 03:01:08;;;;;;;4.15;1.30;;;;;;;;;;4936158;29;20075;-79
2023/03/30 03:03:45;;;;;;;7.10;1.40;;;;;;;;;;4934659;29;20600;-78
2023/03/30 03:06:13;;;;;;;6.00;1.30;;;;;;;;;;4939740;29;20075;-79
2023/03/30 03:08:49;;;;;;;7.80;1.40;;;;;;;;;;4935962;29;20074;-80
2023/03/30 03:11:22;;;;;;;11.90;1.80;;;;;;;;;;4936386;29;20199;-79
2023/03/30 03:13:49;;;;;;;3.80;1.25;;;;;;;;;;4937450;29;20079;-80
2023/03/30 03:16:16;;;;;;;5.57;1.65;;;;;;;;;;4936091;29;20055;-80
2023/03/30 03:19:02;;;;;;;7.63;1.60;;;;;;;;;;4936218;29;20062;-80
2023/03/30 03:21:29;;;;;;;8.05;1.67;;;;;;;;;;4938785;29;20059;-80
2023/03/30 03:23:55;;;;;;;11.70;1.85;;;;;;;;;;4934812;29;20302;-80
2023/03/30 03:26:28;;;;;;;6.93;1.45;;;;;;;;;;4935172;29;20044;-79
2023/03/30 03:28:55;;;;;;;8.38;1.67;;;;;;;;;;4935166;29;20067;-80
2023/03/30 03:31:23;;;;;;;8.40;1.58;;;;;;;;;;4939746;28;20482;-80
2023/03/30 03:33:50;;;;;;;7.13;1.60;;;;;;;;;;4948414;29;20122;-80
2023/03/30 03:36:25;;;;;;;6.07;1.65;;;;;;;;;;4948698;28;20047;-80
2023/03/30 03:38:52;;;;;;;6.70;1.60;;;;;;;;;;4947281;28;20130;-79
2023/03/30 03:41:20;;;;;;;5.95;1.30;;;;;;;;;;4938599;28;20055;-79
2023/03/30 03:43:46;;;;;;;6.60;1.40;;;;;;;;;;4956457;28;20336;-79
2023/03/30 03:46:15;;;;;;;9.18;1.60;;;;;;;;;;4954912;28;20063;-79
2023/03/30 03:48:43;;;;;;;5.72;1.60;;;;;;;;;;4951812;28;20047;-79
2023/03/30 03:51:10;;;;;;;8.98;1.83;;;;;;;;;;4939732;29;20044;-80
2023/03/30 03:53:40;;;;;;;4.85;1.65;;;;;;;;;;4940831;29;20139;-79
2023/03/30 03:56:10;;;;;;;9.10;1.77;;;;;;;;;;4930380;29;20281;-79
2023/03/30 03:58:37;;;;;;;7.88;1.60;;;;;;;;;;4951468;28;20051;-79
2023/03/30 04:01:05;;;;;;;8.32;1.70;;;;;;;;;;4942463;28;20134;-81
2023/03/30 04:03:32;;;;;;;7.50;1.60;;;;;;;;;;4947409;28;20057;-80
2023/03/30 04:06:00;;;;;;;8.90;1.52;;;;;;;;;;4952831;28;20051;-79
2023/03/30 04:08:27;;;;;;;11.32;1.63;;;;;;;;;;4948794;28;20043;-79
2023/03/30 04:11:06;;;;;;;10.43;1.90;;;;;;;;;;4950561;28;20048;-79
2023/03/30 04:14:03;;;;;;;8.25;1.48;;;;;;;;;;4951221;28;21590;-80
2023/03/30 04:16:52;;;;;;;6.10;1.80;;;;;;;;;;4947035;28;20123;-81
2023/03/30 04:19:36;;;;;;;13.73;1.60;;;;;;;;;;4938346;28;20134;-80
2023/03/30 04:22:26;;;;;;;5.68;1.60;;;;;;;;;;4918779;28;20070;-80
2023/03/30 04:25:04;;;;;;;6.28;1.70;;;;;;;;;;4941227;28;20094;-79
2023/03/30 04:27:53;;;;;;;6.97;2.00;;;;;;;;;;4937219;28;20078;-79
2023/03/30 04:30:39;;;;;;;7.43;1.50;;;;;;;;;;4938901;28;20061;-79
2023/03/30 04:33:49;;;;;;;9.88;1.67;;;;;;;;;;4916839;29;20047;-81
2023/03/30 04:36:42;;;;;;;5.45;1.70;;;;;;;;;;4949460;28;20138;-82
2023/03/30 04:39:34;;;;;;;5.78;1.77;;;;;;;;;;4946067;28;20055;-80
2023/03/30 04:42:12;;;;;;;8.50;1.63;;;;;;;;;;4950900;28;20118;-80
2023/03/30 04:45:09;;;;;;;7.70;2.08;;;;;;;;;;4930934;28;20047;-79
2023/03/30 04:48:05;;;;;;;11.88;1.92;;;;;;;;;;4857999;29;20137;-79
2023/03/30 04:50:50;;;;;;;9.47;1.77;;;;;;;;;;4936521;28;20153;-79
2023/03/30 04:53:29;;;;;;;12.35;2.50;;;;;;;;;;4936186;28;20636;-79
2023/03/30 04:56:23;;;;;;;8.80;1.77;;;;;;;;;;4938755;28;20758;-79
2023/03/30 04:59:16;;;;;;;6.95;1.73;;;;;;;;;;4930773;28;20511;-79
2023/03/30 05:02:02;;;;;;;4.93;1.55;;;;;;;;;;4941819;28;20197;-78
2023/03/30 05:05:05;;;;;;;10.07;1.73;;;;;;;;;;4933693;28;20051;-77
2023/03/30 05:07:43;;;;;;;12.75;2.30;;;;;;;;;;4943091;28;20057;-79
2023/03/30 05:10:36;;;;;;;6.07;1.48;;;;;;;;;;4917144;29;20054;-81
2023/03/30 05:13:21;;;;;;;9.93;1.40;;;;;;;;;;4932252;29;20488;-81
2023/03/30 05:16:21;;;;;;;8.93;1.77;;;;;;;;;;4930819;29;20188;-82
2023/03/30 05:19:06;;;;;;;6.75;1.80;;;;;;;;;;4930137;29;20058;-81
2023/03/30 05:21:48;;;;;;;9.18;1.83;;;;;;;;;;4932930;29;20055;-79
2023/03/30 05:24:33;;;;;;;6.63;1.70;;;;;;;;;;4932399;29;20070;-79
2023/03/30 05:27:18;;;;;;;8.30;1.50;;;;;;;;;;4933471;29;20066;-78
2023/03/30 05:30:04;;;;;;;6.95;1.70;;;;;;;;;;4935664;29;20061;-81
2023/03/30 05:32:55;;;;;;;25.67;2.00;;;;;;;;;;4917656;29;20040;-81
2023/03/30 05:35:45;;;;;;;7.80;1.92;;;;;;;;;;4917094;29;20071;-80
2023/03/30 05:38:34;;;;;;;9.98;1.85;;;;;;;;;;4931997;29;20079;-81
2023/03/30 05:41:26;;;;;;;5.68;1.55;;;;;;;;;;4932073;29;20043;-80
2023/03/30 05:44:25;;;;;;;10.40;2.08;;;;;;;;;;4912305;29;20511;-81
2023/03/30 05:46:51;;;;;;;4.75;1.50;;;;;;;;;;4932238;29;20071;-82
2023/03/30 05:49:37;;;;;;;10.13;1.80;;;;;;;;;;4931476;29;20172;-79
2023/03/30 05:52:12;;;;;;;8.02;1.55;;;;;;;;;;4924082;29;20348;-79
2023/03/30 05:55:01;;;;;;;8.80;1.70;;;;;;;;;;4910171;29;20127;-80
2023/03/30 05:57:44;;;;;;;13.18;1.83;;;;;;;;;;4913955;29;20202;-80
2023/03/30 06:00:32;;;;;;;8.35;1.67;;;;;;;;;;4912827;29;20055;-79
2023/03/30 06:03:07;;;;;;;7.55;1.95;;;;;;;;;;4912459;29;20063;-82
2023/03/30 06:05:37;;;;;;;8.95;2.03;;;;;;;;;;4896817;29;20044;-80
2023/03/30 06:08:06;;;;;;;5.30;1.58;;;;;;;;;;4911578;29;20048;-79
2023/03/30 06:10:34;;;;;;;5.53;1.50;;;;;;;;;;4931886;29;20070;-80
2023/03/30 06:13:02;;;;;;;9.63;2.67;;;;;;;;;;4932107;29;20262;-81
2023/03/30 06:15:40;;;;;;;7.70;1.90;;;;;;;;;;4931554;29;20563;-78
2023/03/30 06:18:11;;;;;;;8.32;1.90;;;;;;;;;;4931745;29;20039;-78
2023/03/30 06:20:46;;;;;;;11.43;1.92;;;;;;;;;;4932553;29;20051;-78
2023/03/30 06:23:16;;;;;;;11.85;2.20;;;;;;;;;;4930882;29;20671;-78
2023/03/30 06:25:46;;;;;;;15.88;2.25;;;;;;;;;;4933153;29;20048;-80
2023/03/30 06:28:13;;;;;;;11.68;2.15;;;;;;;;;;4928827;29;20043;-80
2023/03/30 06:30:41;;;;;;;12.07;2.45;;;;;;;;;;4934246;29;20043;-80
2023/03/30 06:33:10;;;;;;;13.88;2.50;;;;;;;;;;4932102;29;20546;-80
2023/03/30 06:35:45;;;;;;;11.90;2.58;;;;;;;;;;4949333;29;20047;-80
2023/03/30 06:38:13;;;;;;;8.63;2.60;;;;;;;;;;4931657;29;20044;-80
2023/03/30 06:40:40;;;;;;;13.75;2.10;;;;;;;;;;4933741;29;20088;-80
2023/03/30 06:43:07;;;;;;;8.77;2.30;;;;;;;;;;4934513;29;20056;-79
2023/03/30 06:45:51;;;;;;;8.25;2.20;;;;;;;;;;4933597;29;20171;-80
2023/03/30 06:48:19;;;;;;;12.77;2.25;;;;;;;;;;4936385;29;20040;-80
2023/03/30 06:50:51;;;;;;;10.88;2.55;;;;;;;;;;4937666;29;20056;-80
2023/03/30 06:53:22;;;;;;;11.70;2.55;;;;;;;;;;4924287;29;20130;-80
2023/03/30 06:55:53;;;;;;;10.07;2.75;;;;;;;;;;4937538;29;20652;-79
2023/03/30 06:58:21;;;;;;;8.02;2.22;;;;;;;;;;4936619;29;20055;-80
2023/03/30 07:00:48;;;;;;;9.68;2.25;;;;;;;;;;4936618;29;20078;-80
2023/03/30 07:03:34;;;;;;;11.77;2.22;;;;;;;;;;4934194;29;20515;-80
2023/03/30 07:06:21;;;;;;;9.82;2.47;;;;;;;;;;4932801;29;20051;-80
2023/03/30 07:08:48;;;;;;;13.35;2.95;;;;;;;;;;4918895;29;20048;-80
2023/03/30 07:11:21;;;;;;;9.43;2.13;;;;;;;;;;4933338;29;20039;-80
2023/03/30 07:13:49;;;;;;;18.80;2.35;;;;;;;;;;4950206;29;20059;-79
2023/03/30 07:16:15;;;;;;;10.23;2.00;;;;;;;;;;4933481;29;20071;-79
2023/03/30 07:18:42;;;;;;;10.38;2.22;;;;;;;;;;4933222;29;20050;-80
2023/03/30 07:21:09;;;;;;;10.98;2.40;;;;;;;;;;4933697;29;20059;-80
2023/03/30 07:23:38;;;;;;;8.45;2.00;;;;;;;;;;4933014;29;20055;-80
2023/03/30 07:26:06;;;;;;;7.32;2.22;;;;;;;;;;4933314;29;20496;-80
2023/03/30 07:28:39;;;;;;;10.27;2.63;;;;;;;;;;4919486;29;20063;-79
2023/03/30 07:31:07;;;;;;;16.70;2.35;;;;;;;;;;4948462;29;20052;-77
2023/03/30 07:33:36;;;;;;;11.90;2.20;;;;;;;;;;4935573;29;20297;-79
2023/03/30 07:36:04;;;;;;;10.52;2.00;;;;;;;;;;4949431;29;20059;-80
2023/03/30 07:38:32;;;;;;;12.25;2.45;;;;;;;;;;4931355;29;20099;-79
2023/03/30 07:40:59;;;;;;;8.95;1.77;;;;;;;;;;4932661;29;20044;-79
2023/03/30 07:43:27;;;;;;;12.68;2.50;;;;;;;;;;4915529;29;20047;-79
2023/03/30 07:45:55;;;;;;;15.63;2.00;;;;;;;;;;4931115;29;20054;-79
2023/03/30 07:48:28;;;;;;;13.18;2.40;;;;;;;;;;4948064;29;20062;-80
2023/03/30 07:51:03;;;;;;;13.68;2.00;;;;;;;;;;4933968;29;20044;-79
2023/03/30 07:53:33;;;;;;;11.00;2.35;;;;;;;;;;4898222;29;20052;-79
2023/03/30 07:56:05;;;;;;;6.25;1.77;;;;;;;;;;4913312;29;20536;-78
2023/03/30 07:58:40;;;;;;;8.90;1.67;;;;;;;;;;4912744;29;20072;-79
2023/03/30 08:01:07;;;;;;;13.25;2.25;;;;;;;;;;4913745;29;20048;-80
2023/03/30 08:03:35;;;;;;;9.85;2.05;;;;;;;;;;4913539;29;20150;-80
2023/03/30 08:06:05;;;;;;;10.40;2.42;;;;;;;;;;4913772;29;20048;-80
2023/03/30 08:08:39;;;;;;;10.13;2.65;;;;;;;;;;4895294;29;20059;-80
2023/03/30 08:11:08;;;;;;;11.30;2.05;;;;;;;;;;4912180;29;20036;-80
2023/03/30 08:13:36;;;;;;;8.32;2.00;;;;;;;;;;4911621;29;20048;-80
2023/03/30 08:16:03;;;;;;;11.50;2.40;;;;;;;;;;4910944;29;20123;-80
2023/03/30 08:18:32;;;;;;;14.68;2.22;;;;;;;;;;4910967;29;20040;-79
2023/03/30 08:20:59;;;;;;;13.07;2.83;;;;;;;;;;4918196;29;20056;-80
2023/03/30 08:23:29;;;;;;;13.27;2.47;;;;;;;;;;4914423;29;21500;-81
2023/03/30 08:25:56;;;;;;;11.52;2.45;;;;;;;;;;4914367;29;20087;-81
2023/03/30 08:28:23;;;;;;;7.22;1.55;;;;;;;;;;4926390;29;20078;-81
2023/03/30 08:30:50;;;;;;;9.38;1.92;;;;;;;;;;4931824;29;20241;-81
2023/03/30 08:33:16;;;;;;;10.57;2.35;;;;;;;;;;4931999;29;20115;-80
2023/03/30 08:35:44;;;;;;;12.55;2.22;;;;;;;;;;4934408;29;20055;-80
2023/03/30 08:38:14;;;;;;;13.80;2.58;;;;;;;;;;4931256;29;20036;-80
2023/03/30 08:40:45;;;;;;;13.05;2.50;;;;;;;;;;4916429;29;20572;-78
2023/03/30 08:43:15;;;;;;;11.05;2.40;;;;;;;;;;4933821;29;20426;-78
2023/03/30 08:45:43;;;;;;;13.10;2.38;;;;;;;;;;4929769;29;20504;-79
2023/03/30 08:48:14;;;;;;;16.15;2.30;;;;;;;;;;4930504;29;20090;-79
2023/03/30 08:50:42;;;;;;;11.27;2.53;;;;;;;;;;4932564;29;20059;-79
2023/03/30 08:53:10;;;;;;;16.90;2.83;;;;;;;;;;4915134;29;20062;-79
2023/03/30 08:55:37;;;;;;;12.82;3.08;;;;;;;;;;4911725;29;20054;-80
2023/03/30 08:58:19;;;;;;;19.48;3.30;;;;;;;;;;4911750;29;20058;-78
2023/03/30 09:01:06;;;;;;;18.45;3.00;;;;;;;;;;4913586;29;20048;-79
2023/03/30 09:03:50;;;;;;;17.27;3.35;;;;;;;;;;4916397;29;20073;-79
2023/03/30 09:06:21;;;;;;;14.95;3.10;;;;;;;;;;4911641;29;20050;-79
2023/03/30 09:08:49;;;;;;;15.48;3.58;;;;;;;;;;4911794;29;20060;-79
2023/03/30 09:11:18;;;;;;;19.00;4.03;;;;;;;;;;4911659;29;20070;-79
2023/03/30 09:13:49;;;;;;;18.60;3.70;;;;;;;;;;4896920;29;20052;-79
2023/03/30 09:16:29;;;;;;;14.80;4.43;;;;;;;;;;4911110;29;20064;-80
2023/03/30 09:18:58;;;;;;;20.02;3.83;;;;;;;;;;4912963;29;20056;-79
2023/03/30 09:21:29;;;;;;;13.55;3.17;;;;;;;;;;4913727;29;20048;-80
2023/03/30 09:23:59;;;;;;;15.13;3.22;;;;;;;;;;4911385;29;20560;-79
2023/03/30 09:26:49;;;;;;;13.95;2.70;;;;;;;;;;4918568;29;20054;-79
2023/03/30 09:29:18;;;;;;;14.13;3.30;;;;;;;;;;4937605;29;20048;-79
2023/03/30 09:31:48;;;;;;;14.50;3.28;;;;;;;;;;4940169;29;20116;-78
2023/03/30 09:34:25;;;;;;;15.30;2.70;;;;;;;;;;4941130;29;20058;-79
2023/03/30 09:37:00;;;;;;;14.27;2.83;;;;;;;;;;4939382;29;20111;-79
2023/03/30 09:39:28;;;;;;;13.27;2.60;;;;;;;;;;4929598;29;20043;-79
2023/03/30 09:41:59;;;;;;;13.55;3.22;;;;;;;;;;4929106;29;20051;-79
2023/03/30 09:44:26;;;;;;;13.77;2.60;;;;;;;;;;4928872;29;20071;-79
2023/03/30 09:46:56;;;;;;;12.07;2.55;;;;;;;;;;4928856;29;20048;-79
2023/03/30 09:49:28;;;;;;;16.15;2.97;;;;;;;;;;4931191;29;20047;-78
2023/03/30 09:52:02;;;;;;;9.00;2.13;;;;;;;;;;4936791;29;20567;-79
2023/03/30 09:54:35;;;;;;;11.85;2.47;;;;;;;;;;4949159;29;20111;-79
2023/03/30 09:57:02;;;;;;;13.73;2.40;;;;;;;;;;4931104;29;20536;-79
2023/03/30 09:59:33;;;;;;;10.25;2.28;;;;;;;;;;4929058;29;20044;-79
2023/03/30 10:02:14;;;;;;;15.30;2.60;;;;;;;;;;4930081;29;20135;-79
2023/03/30 10:05:09;;;;;;;8.82;2.83;;;;;;;;;;4937796;29;20048;-78
2023/03/30 10:07:37;;;;;;;13.52;2.83;;;;;;;;;;4935104;29;20107;-79
2023/03/30 10:10:19;;;;;;;8.60;2.15;;;;;;;;;;4929436;29;20055;-79
2023/03/30 10:12:48;;;;;;;11.70;2.20;;;;;;;;;;4933214;29;20068;-80
2023/03/30 10:15:16;;;;;;;10.73;2.22;;;;;;;;;;4931417;29;20302;-79
2023/03/30 10:17:45;;;;;;;7.72;1.80;;;;;;;;;;4929761;29;20044;-79
2023/03/30 10:20:28;;;;;;;10.10;2.00;;;;;;;;;;4930050;29;20047;-79
2023/03/30 10:23:00;;;;;;;8.43;2.25;;;;;;;;;;4929572;29;20055;-79
2023/03/30 10:25:28;;;;;;;6.72;2.47;;;;;;;;;;4932004;29;20047;-79
2023/03/30 10:27:56;;;;;;;6.85;1.85;;;;;;;;;;4929094;29;20190;-79
2023/03/30 10:30:25;;;;;;;6.88;2.15;;;;;;;;;;4930931;29;20469;-79
2023/03/30 10:32:54;;;;;;;8.00;1.80;;;;;;;;;;4930722;29;20071;-80
2023/03/30 10:35:25;;;;;;;5.97;1.70;;;;;;;;;;4931565;29;20289;-80
2023/03/30 10:37:53;;;;;;;5.85;1.60;;;;;;;;;;4929046;29;20417;-79
2023/03/30 10:40:20;;;;;;;4.20;1.20;;;;;;;;;;4931186;29;20048;-79
2023/03/30 10:42:49;;;;;;;5.25;1.70;;;;;;;;;;4930812;29;20531;-81
2023/03/30 10:45:18;;;;;;;4.90;1.50;;;;;;;;;;4930641;29;20385;-79
2023/03/30 10:48:04;;;;;;;9.88;1.80;;;;;;;;;;4931265;29;20043;-79
2023/03/30 10:50:34;;;;;;;;;;;;;;;;;;4932342;29;20040;-80
2023/03/30 10:53:14;;;;;;;7.88;1.50;;;;;;;;;;4915412;29;20388;-79
2023/03/30 10:56:00;;;;;;;4.97;1.65;;;;;;;;;;4914477;29;20132;-79
2023/03/30 10:58:34;;;;;;;7.68;1.73;;;;;;;;;;4914957;29;20072;-79
2023/03/30 11:01:01;;;;;;;7.20;1.83;;;;;;;;;;4915697;29;20151;-79
2023/03/30 11:03:31;;;;;;;9.05;1.95;;;;;;;;;;4912095;29;20125;-82
2023/03/30 11:06:02;;;;;;;6.28;1.83;;;;;;;;;;4913293;29;20048;-81
2023/03/30 11:08:33;;;;;;;5.07;2.05;;;;;;;;;;4911925;29;20052;-80
2023/03/30 11:11:00;;;;;;;3.80;1.70;;;;;;;;;;4916784;29;20048;-80
2023/03/30 11:13:30;;;;;;;5.07;2.00;;;;;;;;;;4914953;29;20392;-81
2023/03/30 11:16:23;;;;;;;6.28;1.77;;;;;;;;;;4913973;29;20127;-81
2023/03/30 11:18:53;;;;;;;5.47;1.83;;;;;;;;;;4890531;29;20060;-81
2023/03/30 11:21:23;;;;;;;6.72;1.90;;;;;;;;;;4915586;29;20544;-81
2023/03/30 11:23:59;;;;;;;8.30;1.77;;;;;;;;;;4914050;29;20040;-81
2023/03/30 11:26:29;;;;;;;6.05;2.33;;;;;;;;;;4913817;29;20082;-81
2023/03/30 11:28:59;;;;;;;6.80;2.40;;;;;;;;;;4925222;29;20091;-80
2023/03/30 11:31:30;;;;;;;4.38;2.30;;;;;;;;;;4934014;29;20098;-82
2023/03/30 11:33:59;;;;;;;5.35;2.00;;;;;;;;;;4933835;29;20071;-81
2023/03/30 11:36:37;;;;;;;5.45;2.13;;;;;;;;;;4933088;29;20397;-81
2023/03/30 11:39:10;;;;;;;9.20;2.35;;;;;;;;;;4932498;29;20206;-80
2023/03/30 11:41:58;;;;;;;7.68;2.38;;;;;;;;;;4933397;29;20452;-81
2023/03/30 11:44:26;;;;;;;8.35;2.65;;;;;;;;;;4934248;29;20599;-81
2023/03/30 11:46:53;;;;;;;5.85;2.50;;;;;;;;;;4932868;29;20060;-81
2023/03/30 11:49:38;;;;;;;5.10;2.50;;;;;;;;;;4923068;29;20051;-80
2023/03/30 11:52:16;;;;;;;7.20;2.53;;;;;;;;;;4933341;29;20107;-81
2023/03/30 11:54:52;;;;;;;6.47;2.50;;;;;;;;;;4915320;29;20051;-79
2023/03/30 11:57:33;;;;;;;7.50;2.88;;;;;;;;;;4934363;29;20039;-81
2023/03/30 12:00:15;;;;;;;7.22;2.95;;;;;;;;;;4933533;29;20202;-80
2023/03/30 12:02:49;;;;;;;5.68;2.85;;;;;;;;;;4932557;29;20066;-81
2023/03/30 12:05:20;;;;;;;7.65;2.80;;;;;;;;;;4934211;29;20559;-81
2023/03/30 12:08:00;;;;;;;9.13;3.00;;;;;;;;;;4932422;29;20056;-80
2023/03/30 12:10:35;;;;;;;5.78;3.00;;;;;;;;;;4931463;29;20043;-80
2023/03/30 12:13:02;;;;;;;10.02;3.20;;;;;;;;;;4932546;29;20055;-82
2023/03/30 12:15:28;;;;;;;7.10;2.90;;;;;;;;;;4917482;29;20048;-81
2023/03/30 12:18:13;;;;;;;7.90;2.63;;;;;;;;;;4931474;29;20067;-80
2023/03/30 12:20:43;;;;;;;8.38;2.83;;;;;;;;;;4933166;29;20427;-81
2023/03/30 12:23:16;;;;;;;6.75;3.20;;;;;;;;;;4932613;29;20055;-80
2023/03/30 12:25:49;;;;;;;9.15;2.63;;;;;;;;;;4931564;29;20087;-80
2023/03/30 12:28:16;;;;;;;6.07;2.63;;;;;;;;;;4930404;29;20299;-81
2023/03/30 12:30:53;;;;;;;7.72;2.88;;;;;;;;;;4932230;29;20510;-80
2023/03/30 12:33:20;;;;;;;7.00;2.72;;;;;;;;;;4931016;29;20102;-81
2023/03/30 12:35:47;;;;;;;6.40;2.33;;;;;;;;;;4933388;29;20657;-80
2023/03/30 12:38:19;;;;;;;7.95;2.92;;;;;;;;;;4930226;29;20190;-81
2023/03/30 12:40:52;;;;;;;8.07;2.60;;;;;;;;;;4930665;29;20072;-81
2023/03/30 12:43:34;;;;;;;7.10;2.42;;;;;;;;;;4932788;29;20071;-80
2023/03/30 12:46:18;;;;;;;8.27;3.08;;;;;;;;;;4930917;29;20127;-80
2023/03/30 12:48:57;;;;;;;8.70;2.80;;;;;;;;;;4932837;29;20126;-81
2023/03/30 12:51:33;;;;;;;8.52;2.83;;;;;;;;;;4934813;29;20540;-79
2023/03/30 12:54:23;;;;;;;13.00;3.13;;;;;;;;;;4935646;29;20128;-79
2023/03/30 12:56:53;;;;;;;5.90;2.40;;;;;;;;;;4931903;29;20067;-80
2023/03/30 12:59:35;;;;;;;6.32;2.20;;;;;;;;;;4940064;29;20039;-80
2023/03/30 13:02:20;;;;;;;9.65;2.70;;;;;;;;;;4937954;29;20059;-77
2023/03/30 13:04:47;;;;;;;13.63;2.03;;;;;;;;;;4938522;29;20075;-81
2023/03/30 13:07:19;;;;;;;10.18;2.40;;;;;;;;;;4938420;29;20040;-79
2023/03/30 13:09:55;;;;;;;6.85;2.15;;;;;;;;;;4918978;29;20098;-81
2023/03/30 13:12:33;;;;;;;8.55;2.20;;;;;;;;;;4937531;29;20052;-79
2023/03/30 13:15:14;;;;;;;8.73;1.80;;;;;;;;;;4937341;29;20055;-81
2023/03/30 13:18:07;;;;;;;5.10;1.60;;;;;;;;;;4936634;29;20051;-79
2023/03/30 13:20:35;;;;;;;6.18;1.88;;;;;;;;;;4916167;29;20063;-81
2023/03/30 13:23:05;;;;;;;5.97;1.73;;;;;;;;;;4943605;29;20054;-80
2023/03/30 13:25:41;;;;;;;6.25;1.80;;;;;;;;;;4935499;29;20059;-79
2023/03/30 13:28:26;;;;;;;5.47;1.42;;;;;;;;;;4935394;29;20047;-82
2023/03/30 13:30:55;;;;;;;6.38;1.65;;;;;;;;;;4936376;29;20457;-82
2023/03/30 13:33:23;;;;;;;7.60;2.13;;;;;;;;;;4950683;29;20111;-80
2023/03/30 13:35:58;;;;;;;6.57;1.63;;;;;;;;;;4936521;29;20048;-79
2023/03/30 13:38:34;;;;;;;4.72;1.90;;;;;;;;;;4935229;29;20176;-80
2023/03/30 13:41:12;;;;;;;7.50;1.60;;;;;;;;;;4951847;29;20055;-80
2023/03/30 13:43:46;;;;;;;5.78;2.08;;;;;;;;;;4939061;29;20051;-80
2023/03/30 13:46:33;;;;;;;6.15;1.98;;;;;;;;;;4937119;29;20059;-79
2023/03/30 13:49:07;;;;;;;6.72;2.08;;;;;;;;;;4950505;29;20413;-80
2023/03/30 13:51:35;;;;;;;6.35;2.05;;;;;;;;;;4917923;29;20044;-80
2023/03/30 13:54:03;;;;;;;7.30;2.08;;;;;;;;;;4918359;29;20055;-78
2023/03/30 13:56:32;;;;;;;8.93;1.85;;;;;;;;;;4915100;29;20044;-79
2023/03/30 13:59:02;;;;;;;4.60;1.80;;;;;;;;;;4918571;29;20063;-80
2023/03/30 14:01:29;;;;;;;8.70;2.08;;;;;;;;;;4914144;29;20143;-80
2023/03/30 14:03:57;;;;;;;4.70;1.83;;;;;;;;;;4912697;29;20065;-80
2023/03/30 14:06:25;;;;;;;15.35;2.13;;;;;;;;;;4913723;29;20075;-81
2023/03/30 14:08:58;;;;;;;10.48;2.10;;;;;;;;;;4913396;29;20120;-80
2023/03/30 14:11:30;;;;;;;7.75;2.15;;;;;;;;;;4914269;29;20655;-80
2023/03/30 14:13:57;;;;;;;6.68;1.80;;;;;;;;;;4915342;29;20433;-80
2023/03/30 14:16:25;;;;;;;6.60;2.10;;;;;;;;;;4914835;29;20094;-80
2023/03/30 14:19:01;;;;;;;10.52;2.22;;;;;;;;;;4913345;29;20066;-80
2023/03/30 14:21:30;;;;;;;7.45;2.15;;;;;;;;;;4928961;29;20102;-80
2023/03/30 14:24:01;;;;;;;8.70;2.10;;;;;;;;;;4915229;29;20165;-81
2023/03/30 14:26:28;;;;;;;6.78;2.03;;;;;;;;;;4931259;29;20115;-81
2023/03/30 14:28:56;;;;;;;5.25;1.70;;;;;;;;;;4928821;29;20471;-81
2023/03/30 14:31:26;;;;;;;5.57;1.92;;;;;;;;;;4932255;29;20130;-81
2023/03/30 14:33:54;;;;;;;6.82;1.95;;;;;;;;;;4914817;29;20048;-81
2023/03/30 14:36:20;;;;;;;8.73;1.77;;;;;;;;;;4932929;29;20052;-81
2023/03/30 14:38:50;;;;;;;8.65;1.65;;;;;;;;;;4941888;29;20040;-78
2023/03/30 14:41:16;;;;;;;10.75;2.40;;;;;;;;;;4940671;29;20047;-81
2023/03/30 14:43:49;;;;;;;7.65;1.80;;;;;;;;;;4933361;29;20052;-80
2023/03/30 14:46:17;;;;;;;9.10;2.50;;;;;;;;;;4934776;29;20059;-80
2023/03/30 14:48:46;;;;;;;11.13;1.77;;;;;;;;;;4934499;29;20055;-80
2023/03/30 14:51:26;;;;;;;5.63;1.80;;;;;;;;;;4935256;29;20044;-80
2023/03/30 14:53:53;;;;;;;7.07;1.60;;;;;;;;;;4914784;29;20358;-82
2023/03/30 14:56:21;;;;;;;6.25;1.80;;;;;;;;;;4916830;29;20055;-78
2023/03/30 14:58:50;;;;;;;8.05;1.85;;;;;;;;;;4916493;29;20077;-81
2023/03/30 15:01:18;;;;;;;5.60;1.65;;;;;;;;;;4917305;29;20199;-79
2023/03/30 15:03:46;;;;;;;6.85;1.65;;;;;;;;;;4918294;29;20080;-80
2023/03/30 15:06:19;;;;;;;6.90;1.83;;;;;;;;;;4914683;29;20485;-80
2023/03/30 15:08:50;;;;;;;9.73;1.85;;;;;;;;;;4913222;29;20076;-80
2023/03/30 15:11:21;;;;;;;8.50;1.15;;;;;;;;;;4919819;29;20123;-80
2023/03/30 15:13:52;;;;;;;2.75;0.60;;;;;;;;;;4935311;29;20121;-78
2023/03/30 15:16:26;;;;;;;5.35;0.60;;;;;;;;;;4930961;29;20525;-79